Time;durP1;ratioP1;P1;durP2;ratioP2;P2;SDS_P1;SDS_P2;PMS_P1;PMS_P2;Temp;Humidity;BMP_temperature;BMP_pressure;BME280_temperature;BME280_humidity;BME280_pressure;Samples;Min_cycle;Max_cycle;Signal;HPM_P1;HPM_P2
2022/04/14 00:00:27;;;;;;;10.07;2.05;;;;;;;;;;5112906;28;20462;-61
2022/04/14 00:02:53;;;;;;;4.53;1.98;;;;;;;;;;5113435;28;20044;-63
2022/04/14 00:05:19;;;;;;;5.88;2.10;;;;;;;;;;5113769;28;20095;-61
2022/04/14 00:07:45;;;;;;;4.78;2.10;;;;;;;;;;5095396;28;20371;-62
2022/04/14 00:10:12;;;;;;;4.90;2.25;;;;;;;;;;5110482;28;20020;-62
2022/04/14 00:12:38;;;;;;;4.97;2.00;;;;;;;;;;5113401;28;20030;-62
2022/04/14 00:15:05;;;;;;;4.30;1.90;;;;;;;;;;5113217;28;20130;-63
2022/04/14 00:17:32;;;;;;;9.07;2.30;;;;;;;;;;5113493;28;20026;-62
2022/04/14 00:19:58;;;;;;;8.05;2.20;;;;;;;;;;5113164;28;20528;-62
2022/04/14 00:22:24;;;;;;;5.93;2.35;;;;;;;;;;5113359;28;20428;-63
2022/04/14 00:24:51;;;;;;;7.07;2.03;;;;;;;;;;5113016;28;20030;-63
2022/04/14 00:27:20;;;;;;;5.50;2.20;;;;;;;;;;5113320;28;20051;-63
2022/04/14 00:29:49;;;;;;;5.00;2.17;;;;;;;;;;5112965;28;20028;-63
2022/04/14 00:32:16;;;;;;;6.47;2.25;;;;;;;;;;5113023;28;20378;-62
2022/04/14 00:34:42;;;;;;;5.20;2.35;;;;;;;;;;5113188;28;20015;-62
2022/04/14 00:37:11;;;;;;;6.53;1.77;;;;;;;;;;5113105;28;20022;-62
2022/04/14 00:39:40;;;;;;;4.53;1.98;;;;;;;;;;5112610;28;20100;-62
2022/04/14 00:42:13;;;;;;;4.90;2.20;;;;;;;;;;5112462;28;20026;-62
2022/04/14 00:44:39;;;;;;;4.43;2.28;;;;;;;;;;5112225;28;20067;-63
2022/04/14 00:47:06;;;;;;;4.15;2.05;;;;;;;;;;5112633;28;20028;-63
2022/04/14 00:49:32;;;;;;;4.78;2.00;;;;;;;;;;5113003;28;20028;-63
2022/04/14 00:52:00;;;;;;;6.88;2.70;;;;;;;;;;5112977;28;20502;-62
2022/04/14 00:54:26;;;;;;;5.30;2.05;;;;;;;;;;5112773;28;20024;-62
2022/04/14 00:56:52;;;;;;;5.07;1.73;;;;;;;;;;5112817;28;20064;-63
2022/04/14 00:59:18;;;;;;;4.00;1.95;;;;;;;;;;5113118;28;20031;-63
2022/04/14 01:01:44;;;;;;;5.35;1.98;;;;;;;;;;5112778;28;20019;-63
2022/04/14 01:04:11;;;;;;;5.85;2.08;;;;;;;;;;5112756;28;20027;-63
2022/04/14 01:06:38;;;;;;;4.63;1.88;;;;;;;;;;5112675;28;20099;-63
2022/04/14 01:09:16;;;;;;;5.55;2.35;;;;;;;;;;5112352;28;20032;-63
2022/04/14 01:11:46;;;;;;;4.22;2.13;;;;;;;;;;5112707;28;20106;-63
2022/04/14 01:14:39;;;;;;;4.13;2.03;;;;;;;;;;5112775;28;20027;-62
2022/04/14 01:17:07;;;;;;;5.25;2.20;;;;;;;;;;5109165;28;20036;-63
2022/04/14 01:19:33;;;;;;;4.30;2.10;;;;;;;;;;5112591;28;20478;-63
2022/04/14 01:21:59;;;;;;;3.70;2.00;;;;;;;;;;5112584;28;20020;-63
2022/04/14 01:24:26;;;;;;;6.50;2.33;;;;;;;;;;5111886;28;20062;-62
2022/04/14 01:26:53;;;;;;;4.60;2.00;;;;;;;;;;5112105;28;20020;-62
2022/04/14 01:29:21;;;;;;;4.82;2.25;;;;;;;;;;5112136;28;20507;-62
2022/04/14 01:31:47;;;;;;;4.28;1.95;;;;;;;;;;5094363;28;20370;-63
2022/04/14 01:34:13;;;;;;;4.40;2.20;;;;;;;;;;5112013;28;20467;-63
2022/04/14 01:36:39;;;;;;;5.32;2.20;;;;;;;;;;5114355;28;20482;-62
2022/04/14 01:39:05;;;;;;;4.40;2.22;;;;;;;;;;5116138;28;20466;-62
2022/04/14 01:41:31;;;;;;;5.80;2.08;;;;;;;;;;5116150;28;20475;-61
2022/04/14 01:43:57;;;;;;;4.25;2.10;;;;;;;;;;5115938;28;20043;-62
2022/04/14 01:46:23;;;;;;;4.10;2.17;;;;;;;;;;5116005;28;20026;-62
2022/04/14 01:48:50;;;;;;;4.88;1.88;;;;;;;;;;5115744;28;20035;-63
2022/04/14 01:51:16;;;;;;;5.10;2.45;;;;;;;;;;5115876;28;20015;-62
2022/04/14 01:53:42;;;;;;;8.82;2.95;;;;;;;;;;5114351;28;20032;-62
2022/04/14 01:56:08;;;;;;;4.85;2.00;;;;;;;;;;5115467;28;20020;-63
2022/04/14 01:58:34;;;;;;;5.75;2.13;;;;;;;;;;5115594;28;20019;-63
2022/04/14 02:01:00;;;;;;;4.75;2.35;;;;;;;;;;5097320;28;20128;-62
2022/04/14 02:03:26;;;;;;;4.75;2.15;;;;;;;;;;5115493;28;20095;-62
2022/04/14 02:05:52;;;;;;;4.15;1.98;;;;;;;;;;5115150;28;20028;-62
2022/04/14 02:08:18;;;;;;;5.85;2.35;;;;;;;;;;5115274;28;20118;-62
2022/04/14 02:10:44;;;;;;;5.38;2.10;;;;;;;;;;5112231;28;20486;-61
2022/04/14 02:13:10;;;;;;;5.22;2.05;;;;;;;;;;5115475;28;20467;-62
2022/04/14 02:15:36;;;;;;;4.20;2.20;;;;;;;;;;5115292;28;20479;-61
2022/04/14 02:18:02;;;;;;;4.63;1.98;;;;;;;;;;5115359;28;20031;-62
2022/04/14 02:20:28;;;;;;;4.50;2.10;;;;;;;;;;5115515;28;20077;-61
2022/04/14 02:22:54;;;;;;;4.43;1.98;;;;;;;;;;5115902;28;20102;-61
2022/04/14 02:25:20;;;;;;;6.28;2.30;;;;;;;;;;5115675;28;20020;-62
2022/04/14 02:27:47;;;;;;;5.20;2.17;;;;;;;;;;5115207;28;20020;-61
2022/04/14 02:30:13;;;;;;;5.20;2.35;;;;;;;;;;5114954;28;20493;-62
2022/04/14 02:32:39;;;;;;;4.43;1.75;;;;;;;;;;5114743;28;20023;-62
2022/04/14 02:35:05;;;;;;;3.88;2.13;;;;;;;;;;5114980;28;20034;-62
2022/04/14 02:37:32;;;;;;;5.57;2.35;;;;;;;;;;5114983;28;20467;-62
2022/04/14 02:39:58;;;;;;;4.32;2.00;;;;;;;;;;5114943;28;20020;-62
2022/04/14 02:42:24;;;;;;;5.95;2.10;;;;;;;;;;5115142;28;20020;-61
2022/04/14 02:44:50;;;;;;;4.15;1.52;;;;;;;;;;5114757;28;20040;-62
2022/04/14 02:47:16;;;;;;;5.78;2.53;;;;;;;;;;5096220;28;20650;-62
2022/04/14 02:49:42;;;;;;;4.05;2.10;;;;;;;;;;5114805;28;20039;-61
2022/04/14 02:52:08;;;;;;;4.63;2.13;;;;;;;;;;5115035;28;20030;-62
2022/04/14 02:54:37;;;;;;;4.70;2.15;;;;;;;;;;5114937;28;20034;-63
2022/04/14 02:57:06;;;;;;;5.68;2.40;;;;;;;;;;5114647;28;20012;-62
2022/04/14 02:59:33;;;;;;;4.88;2.22;;;;;;;;;;5114349;28;20022;-62
2022/04/14 03:01:59;;;;;;;5.72;2.45;;;;;;;;;;5114187;28;20135;-62
2022/04/14 03:04:26;;;;;;;5.50;2.25;;;;;;;;;;5114315;28;20387;-62
2022/04/14 03:06:52;;;;;;;4.90;2.10;;;;;;;;;;5113881;28;20103;-62
2022/04/14 03:09:18;;;;;;;4.47;2.22;;;;;;;;;;5113564;28;20028;-63
2022/04/14 03:11:44;;;;;;;3.67;1.80;;;;;;;;;;5095123;28;20022;-62
2022/04/14 03:14:10;;;;;;;4.13;1.92;;;;;;;;;;5113503;28;20144;-63
2022/04/14 03:16:36;;;;;;;5.55;2.08;;;;;;;;;;5113536;28;20020;-62
2022/04/14 03:19:02;;;;;;;4.95;2.20;;;;;;;;;;5113947;28;20027;-63
2022/04/14 03:21:29;;;;;;;3.65;1.95;;;;;;;;;;5114214;28;20111;-62
2022/04/14 03:23:55;;;;;;;5.65;2.22;;;;;;;;;;5114071;28;20024;-62
2022/04/14 03:26:21;;;;;;;7.15;2.33;;;;;;;;;;5114199;28;20103;-63
2022/04/14 03:28:47;;;;;;;3.97;2.03;;;;;;;;;;5113974;28;20035;-62
2022/04/14 03:31:13;;;;;;;4.38;2.00;;;;;;;;;;5113911;28;20051;-62
2022/04/14 03:33:39;;;;;;;6.47;2.17;;;;;;;;;;5113837;28;20034;-63
2022/04/14 03:36:05;;;;;;;5.63;1.77;;;;;;;;;;5113360;28;20030;-62
2022/04/14 03:38:32;;;;;;;4.95;2.17;;;;;;;;;;5095318;28;20027;-62
2022/04/14 03:40:59;;;;;;;5.30;2.13;;;;;;;;;;5095401;28;20019;-63
2022/04/14 03:43:25;;;;;;;5.32;2.50;;;;;;;;;;5113454;28;20107;-61
2022/04/14 03:45:51;;;;;;;4.97;2.45;;;;;;;;;;5113816;28;20099;-62
2022/04/14 03:48:18;;;;;;;4.78;2.10;;;;;;;;;;5113772;28;20059;-63
2022/04/14 03:50:44;;;;;;;3.97;1.98;;;;;;;;;;5095355;28;20468;-62
2022/04/14 03:53:10;;;;;;;4.03;1.90;;;;;;;;;;5113340;28;20121;-62
2022/04/14 03:55:36;;;;;;;5.97;2.30;;;;;;;;;;5094634;28;20423;-62
2022/04/14 03:58:02;;;;;;;5.45;2.53;;;;;;;;;;5093044;28;20047;-62
2022/04/14 04:00:28;;;;;;;4.63;2.30;;;;;;;;;;5092750;28;20071;-62
2022/04/14 04:02:54;;;;;;;4.15;1.75;;;;;;;;;;5091762;28;20099;-62
2022/04/14 04:05:20;;;;;;;5.45;2.20;;;;;;;;;;5092461;28;20023;-63
2022/04/14 04:07:46;;;;;;;6.70;2.35;;;;;;;;;;5092516;28;20070;-62
2022/04/14 04:10:12;;;;;;;4.65;2.10;;;;;;;;;;5074285;28;20024;-63
2022/04/14 04:12:38;;;;;;;5.40;1.90;;;;;;;;;;5109607;28;20024;-61
2022/04/14 04:15:05;;;;;;;4.30;2.13;;;;;;;;;;5112769;28;20022;-61
2022/04/14 04:17:31;;;;;;;4.40;2.05;;;;;;;;;;5112711;28;20023;-61
2022/04/14 04:19:57;;;;;;;4.30;2.28;;;;;;;;;;5112390;28;20461;-61
2022/04/14 04:22:23;;;;;;;5.07;2.28;;;;;;;;;;5112838;28;20015;-64
2022/04/14 04:24:49;;;;;;;5.22;2.20;;;;;;;;;;5112933;28;20016;-61
2022/04/14 04:27:15;;;;;;;3.53;1.90;;;;;;;;;;5112480;28;20501;-63
2022/04/14 04:29:41;;;;;;;4.13;2.15;;;;;;;;;;5112713;28;20031;-61
2022/04/14 04:32:07;;;;;;;4.75;2.13;;;;;;;;;;5112434;28;20047;-61
2022/04/14 04:34:33;;;;;;;4.40;1.90;;;;;;;;;;5112028;28;20066;-62
2022/04/14 04:36:59;;;;;;;6.72;2.05;;;;;;;;;;5112411;28;20031;-63
2022/04/14 04:39:26;;;;;;;4.80;2.15;;;;;;;;;;5112478;28;20030;-62
2022/04/14 04:41:52;;;;;;;5.68;2.13;;;;;;;;;;5112151;28;20471;-62
2022/04/14 04:44:18;;;;;;;4.47;2.13;;;;;;;;;;5112253;28;20055;-62
2022/04/14 04:46:44;;;;;;;5.28;2.20;;;;;;;;;;5112580;28;20031;-61
2022/04/14 04:49:10;;;;;;;5.03;2.22;;;;;;;;;;5094080;28;20368;-61
2022/04/14 04:51:36;;;;;;;6.05;2.75;;;;;;;;;;5112044;28;20361;-61
2022/04/14 04:54:02;;;;;;;5.78;2.42;;;;;;;;;;5112310;28;20023;-61
2022/04/14 04:56:28;;;;;;;5.32;2.00;;;;;;;;;;5112269;28;20019;-62
2022/04/14 04:58:54;;;;;;;5.63;2.22;;;;;;;;;;5112096;28;20051;-61
2022/04/14 05:01:20;;;;;;;6.10;2.20;;;;;;;;;;5112233;28;20042;-61
2022/04/14 05:03:46;;;;;;;4.47;2.10;;;;;;;;;;5111788;28;20024;-61
2022/04/14 05:06:13;;;;;;;5.45;2.20;;;;;;;;;;5111706;28;20024;-62
2022/04/14 05:08:39;;;;;;;3.92;2.05;;;;;;;;;;5093361;28;20474;-61
2022/04/14 05:11:05;;;;;;;6.22;2.10;;;;;;;;;;5111173;28;20027;-62
2022/04/14 05:13:31;;;;;;;5.03;2.33;;;;;;;;;;5111315;28;20020;-61
2022/04/14 05:15:57;;;;;;;6.07;2.53;;;;;;;;;;5111236;28;20127;-62
2022/04/14 05:18:23;;;;;;;5.55;2.58;;;;;;;;;;5111051;28;20510;-62
2022/04/14 05:20:49;;;;;;;4.68;2.15;;;;;;;;;;5111437;28;20024;-62
2022/04/14 05:23:15;;;;;;;6.25;2.75;;;;;;;;;;5111462;28;20024;-62
2022/04/14 05:25:41;;;;;;;6.22;2.40;;;;;;;;;;5111390;28;20371;-62
2022/04/14 05:28:08;;;;;;;5.65;2.30;;;;;;;;;;5111361;28;20028;-62
2022/04/14 05:30:34;;;;;;;6.13;2.55;;;;;;;;;;5111320;28;20020;-62
2022/04/14 05:33:00;;;;;;;6.68;2.22;;;;;;;;;;5111352;28;20588;-62
2022/04/14 05:35:26;;;;;;;19.30;2.20;;;;;;;;;;5111336;28;20589;-62
2022/04/14 05:37:52;;;;;;;9.10;2.53;;;;;;;;;;5111421;28;20462;-61
2022/04/14 05:40:18;;;;;;;6.25;2.30;;;;;;;;;;5111287;28;20031;-62
2022/04/14 05:42:48;;;;;;;5.43;2.30;;;;;;;;;;5111471;28;20019;-61
2022/04/14 05:45:14;;;;;;;4.63;2.30;;;;;;;;;;5111343;28;20040;-62
2022/04/14 05:47:40;;;;;;;6.80;2.38;;;;;;;;;;5111254;28;20103;-61
2022/04/14 05:50:06;;;;;;;4.95;2.40;;;;;;;;;;5111544;28;20039;-61
2022/04/14 05:52:33;;;;;;;6.85;2.55;;;;;;;;;;5111358;28;20024;-63
2022/04/14 05:55:01;;;;;;;5.65;2.35;;;;;;;;;;5111203;28;20020;-62
2022/04/14 05:57:28;;;;;;;5.28;2.47;;;;;;;;;;5111497;28;20024;-63
2022/04/14 05:59:54;;;;;;;5.82;2.30;;;;;;;;;;5111190;28;20019;-63
2022/04/14 06:02:20;;;;;;;6.25;2.50;;;;;;;;;;5110337;28;20023;-62
2022/04/14 06:04:47;;;;;;;5.97;2.40;;;;;;;;;;5111159;28;20054;-63
2022/04/14 06:07:13;;;;;;;5.45;2.45;;;;;;;;;;5111503;28;20028;-63
2022/04/14 06:09:39;;;;;;;6.45;2.55;;;;;;;;;;5111627;28;20024;-62
2022/04/14 06:12:05;;;;;;;4.57;2.35;;;;;;;;;;5107895;28;20016;-63
2022/04/14 06:14:33;;;;;;;6.78;2.35;;;;;;;;;;5111514;28;20047;-61
2022/04/14 06:16:59;;;;;;;6.22;2.60;;;;;;;;;;5111839;28;20459;-62
2022/04/14 06:19:25;;;;;;;6.05;2.28;;;;;;;;;;5111306;28;20027;-62
2022/04/14 06:21:51;;;;;;;5.82;2.22;;;;;;;;;;5112538;28;20052;-62
2022/04/14 06:24:17;;;;;;;6.22;2.50;;;;;;;;;;5114805;28;20506;-62
2022/04/14 06:26:43;;;;;;;5.30;2.30;;;;;;;;;;5114873;28;20096;-62
2022/04/14 06:29:10;;;;;;;4.97;1.90;;;;;;;;;;5115001;28;20092;-64
2022/04/14 06:31:37;;;;;;;6.60;2.65;;;;;;;;;;5114587;28;20027;-62
2022/04/14 06:34:05;;;;;;;6.43;2.38;;;;;;;;;;5096406;28;20051;-62
2022/04/14 06:36:31;;;;;;;6.20;2.85;;;;;;;;;;5114886;28;20028;-64
2022/04/14 06:38:57;;;;;;;9.60;2.40;;;;;;;;;;5114798;28;20089;-61
2022/04/14 06:41:25;;;;;;;6.18;2.78;;;;;;;;;;5114688;28;20030;-62
2022/04/14 06:43:51;;;;;;;6.72;3.00;;;;;;;;;;5114556;28;20050;-62
2022/04/14 06:46:17;;;;;;;5.85;2.55;;;;;;;;;;5114946;28;20055;-64
2022/04/14 06:48:44;;;;;;;7.05;3.13;;;;;;;;;;5115207;28;20066;-64
2022/04/14 06:51:11;;;;;;;6.88;2.88;;;;;;;;;;5114916;28;20023;-63
2022/04/14 06:53:38;;;;;;;6.22;3.20;;;;;;;;;;5096575;28;20035;-63
2022/04/14 06:56:05;;;;;;;5.75;3.00;;;;;;;;;;5114878;28;20028;-63
2022/04/14 06:58:31;;;;;;;6.68;3.08;;;;;;;;;;5114791;28;20517;-63
2022/04/14 07:00:57;;;;;;;21.05;3.42;;;;;;;;;;5114551;28;20020;-65
2022/04/14 07:03:26;;;;;;;6.88;2.65;;;;;;;;;;5114133;28;20031;-63
2022/04/14 07:05:56;;;;;;;10.52;4.10;;;;;;;;;;5114432;28;20051;-63
2022/04/14 07:08:25;;;;;;;7.75;3.55;;;;;;;;;;5114162;28;20031;-63
2022/04/14 07:10:55;;;;;;;8.10;3.42;;;;;;;;;;5114814;28;20096;-63
2022/04/14 07:13:21;;;;;;;10.15;3.17;;;;;;;;;;5114529;28;20035;-63
2022/04/14 07:15:47;;;;;;;7.53;3.53;;;;;;;;;;5111159;28;20035;-64
2022/04/14 07:18:13;;;;;;;8.77;3.40;;;;;;;;;;5113519;28;20024;-62
2022/04/14 07:20:39;;;;;;;6.15;3.22;;;;;;;;;;5113388;28;20030;-63
2022/04/14 07:23:08;;;;;;;7.68;3.65;;;;;;;;;;5114183;28;20037;-63
2022/04/14 07:25:35;;;;;;;7.50;3.50;;;;;;;;;;5114553;28;20019;-63
2022/04/14 07:28:01;;;;;;;7.85;3.47;;;;;;;;;;5114075;28;20038;-63
2022/04/14 07:30:27;;;;;;;6.70;3.60;;;;;;;;;;5095999;28;20016;-63
2022/04/14 07:32:54;;;;;;;6.82;2.88;;;;;;;;;;5113561;28;20023;-63
2022/04/14 07:35:22;;;;;;;8.90;3.97;;;;;;;;;;5113597;28;20028;-62
2022/04/14 07:37:48;;;;;;;13.00;3.80;;;;;;;;;;5113244;28;20019;-63
2022/04/14 07:40:15;;;;;;;6.40;3.50;;;;;;;;;;5113285;28;20093;-61
2022/04/14 07:42:42;;;;;;;9.20;3.85;;;;;;;;;;5113560;28;20019;-63
2022/04/14 07:45:09;;;;;;;9.07;3.63;;;;;;;;;;5114058;28;20102;-63
2022/04/14 07:47:35;;;;;;;8.57;3.33;;;;;;;;;;5113874;28;20117;-62
2022/04/14 07:50:01;;;;;;;10.50;3.47;;;;;;;;;;5113818;28;20478;-62
2022/04/14 07:52:27;;;;;;;8.43;3.15;;;;;;;;;;5113755;28;20095;-62
2022/04/14 07:54:53;;;;;;;9.15;4.07;;;;;;;;;;5113937;28;20488;-62
2022/04/14 07:57:19;;;;;;;8.10;3.10;;;;;;;;;;5113040;28;20593;-62
2022/04/14 07:59:45;;;;;;;6.90;3.20;;;;;;;;;;5112773;28;20467;-63
2022/04/14 08:02:11;;;;;;;6.28;2.97;;;;;;;;;;5113154;28;20026;-62
2022/04/14 08:04:38;;;;;;;8.85;3.17;;;;;;;;;;5093306;28;20020;-62
2022/04/14 08:07:05;;;;;;;8.02;3.55;;;;;;;;;;5092410;28;20016;-62
2022/04/14 08:09:31;;;;;;;6.53;2.85;;;;;;;;;;5106268;28;20110;-63
2022/04/14 08:11:57;;;;;;;8.20;3.65;;;;;;;;;;5112919;28;20099;-62
2022/04/14 08:14:23;;;;;;;6.85;3.10;;;;;;;;;;5113269;28;20023;-63
2022/04/14 08:16:49;;;;;;;7.93;3.22;;;;;;;;;;5112681;28;20533;-63
2022/04/14 08:19:15;;;;;;;8.25;3.10;;;;;;;;;;5113546;28;20030;-63
2022/04/14 08:21:41;;;;;;;8.13;3.30;;;;;;;;;;5113008;28;20047;-62
2022/04/14 08:24:07;;;;;;;9.80;3.13;;;;;;;;;;5112844;28;20467;-63
2022/04/14 08:26:34;;;;;;;15.43;4.82;;;;;;;;;;5094619;28;20093;-63
2022/04/14 08:29:00;;;;;;;25.33;7.03;;;;;;;;;;5112669;28;20028;-62
2022/04/14 08:31:27;;;;;;;17.65;5.00;;;;;;;;;;5108138;28;20046;-62
2022/04/14 08:33:53;;;;;;;22.30;5.90;;;;;;;;;;5112335;28;20047;-62
2022/04/14 08:36:21;;;;;;;16.92;6.47;;;;;;;;;;5112623;28;20023;-63
2022/04/14 08:38:49;;;;;;;19.30;5.68;;;;;;;;;;5112444;28;20023;-63
2022/04/14 08:41:17;;;;;;;15.20;4.43;;;;;;;;;;5112477;28;20458;-61
2022/04/14 08:43:49;;;;;;;12.13;4.40;;;;;;;;;;5112277;28;20058;-62
2022/04/14 08:46:16;;;;;;;10.57;4.43;;;;;;;;;;5112391;28;20020;-63
2022/04/14 08:48:44;;;;;;;13.02;3.88;;;;;;;;;;5100399;28;20043;-63
2022/04/14 08:51:14;;;;;;;9.75;4.35;;;;;;;;;;5092348;28;20093;-62
2022/04/14 08:53:41;;;;;;;11.65;4.53;;;;;;;;;;5092114;28;20115;-62
2022/04/14 08:56:07;;;;;;;12.93;5.07;;;;;;;;;;5092133;28;20077;-62
2022/04/14 08:58:37;;;;;;;24.52;4.40;;;;;;;;;;5092081;28;20024;-62
2022/04/14 09:01:03;;;;;;;16.08;3.97;;;;;;;;;;5091714;28;20400;-61
2022/04/14 09:03:31;;;;;;;10.50;3.70;;;;;;;;;;5091474;28;20031;-61
2022/04/14 09:05:57;;;;;;;23.00;3.17;;;;;;;;;;5091239;28;20028;-62
2022/04/14 09:08:24;;;;;;;10.25;2.70;;;;;;;;;;5092029;28;20043;-61
2022/04/14 09:10:51;;;;;;;13.63;4.45;;;;;;;;;;5092188;28;20640;-61
2022/04/14 09:13:18;;;;;;;8.85;3.42;;;;;;;;;;5091974;28;20044;-62
2022/04/14 09:15:44;;;;;;;11.65;3.90;;;;;;;;;;5092034;28;20030;-62
2022/04/14 09:18:10;;;;;;;9.77;4.18;;;;;;;;;;5091546;28;20043;-62
2022/04/14 09:20:37;;;;;;;9.23;3.72;;;;;;;;;;5091648;28;20483;-63
2022/04/14 09:23:10;;;;;;;15.90;4.20;;;;;;;;;;5091573;28;20111;-62
2022/04/14 09:25:36;;;;;;;10.38;3.60;;;;;;;;;;5091871;28;20016;-62
2022/04/14 09:28:12;;;;;;;6.75;2.70;;;;;;;;;;5092035;28;20395;-63
2022/04/14 09:30:38;;;;;;;7.07;2.50;;;;;;;;;;5091979;28;20021;-61
2022/04/14 09:33:04;;;;;;;8.52;3.63;;;;;;;;;;5091529;28;20115;-62
2022/04/14 09:35:34;;;;;;;6.47;2.53;;;;;;;;;;5092100;28;20403;-62
2022/04/14 09:38:02;;;;;;;5.47;2.58;;;;;;;;;;5091246;28;20502;-62
2022/04/14 09:40:33;;;;;;;6.45;2.35;;;;;;;;;;5091414;28;20035;-62
2022/04/14 09:43:00;;;;;;;8.20;2.60;;;;;;;;;;5091149;28;20020;-63
2022/04/14 09:45:28;;;;;;;6.78;2.53;;;;;;;;;;5091549;28;20024;-63
2022/04/14 09:47:55;;;;;;;9.48;2.72;;;;;;;;;;5091181;28;20109;-62
2022/04/14 09:50:34;;;;;;;8.43;2.92;;;;;;;;;;5091140;28;20073;-62
2022/04/14 09:53:00;;;;;;;6.55;2.88;;;;;;;;;;5090796;28;20016;-62
2022/04/14 09:55:27;;;;;;;8.00;2.60;;;;;;;;;;5091283;28;20024;-62
2022/04/14 09:58:11;;;;;;;5.57;2.53;;;;;;;;;;5093853;28;20024;-62
2022/04/14 10:00:38;;;;;;;9.85;2.42;;;;;;;;;;5095143;28;20039;-62
2022/04/14 10:03:12;;;;;;;6.28;2.65;;;;;;;;;;5096696;28;20120;-62
2022/04/14 10:05:39;;;;;;;8.48;2.88;;;;;;;;;;5115497;28;20024;-62
2022/04/14 10:08:08;;;;;;;6.35;3.22;;;;;;;;;;5115057;28;20155;-62
2022/04/14 10:10:35;;;;;;;5.93;2.53;;;;;;;;;;5115714;28;20024;-62
2022/04/14 10:13:05;;;;;;;7.32;2.40;;;;;;;;;;5115721;28;20020;-62
2022/04/14 10:15:35;;;;;;;4.47;2.10;;;;;;;;;;5115549;28;20295;-62
2022/04/14 10:18:06;;;;;;;5.72;2.45;;;;;;;;;;5114507;28;20032;-62
2022/04/14 10:20:33;;;;;;;4.55;2.13;;;;;;;;;;5114523;28;20047;-62
2022/04/14 10:23:02;;;;;;;7.95;2.78;;;;;;;;;;5114982;28;20024;-63
2022/04/14 10:25:29;;;;;;;8.30;2.80;;;;;;;;;;5115111;28;20016;-63
2022/04/14 10:27:57;;;;;;;8.82;3.20;;;;;;;;;;5115313;28;20575;-63
2022/04/14 10:30:24;;;;;;;9.82;2.90;;;;;;;;;;5097251;28;20069;-62
2022/04/14 10:32:51;;;;;;;7.25;3.25;;;;;;;;;;5113305;28;20110;-61
2022/04/14 10:35:18;;;;;;;8.73;2.65;;;;;;;;;;5099774;28;20095;-62
2022/04/14 10:37:46;;;;;;;5.88;2.65;;;;;;;;;;5095233;28;20015;-62
2022/04/14 10:40:12;;;;;;;5.10;2.08;;;;;;;;;;5105190;28;20031;-62
2022/04/14 10:42:40;;;;;;;5.63;2.50;;;;;;;;;;5106094;28;20040;-63
2022/04/14 10:45:22;;;;;;;7.15;2.70;;;;;;;;;;5064149;28;20052;-62
2022/04/14 10:47:51;;;;;;;6.50;2.78;;;;;;;;;;5056635;28;20025;-62
2022/04/14 10:50:34;;;;;;;6.18;2.10;;;;;;;;;;5073832;28;20471;-62
2022/04/14 10:53:00;;;;;;;;;;;;;;;;;;5073455;28;20391;-61
2022/04/14 10:55:46;;;;;;;12.43;3.08;;;;;;;;;;5073234;28;19904;-62
2022/04/14 10:58:35;;;;;;;6.63;2.72;;;;;;;;;;5071641;28;20628;-61
2022/04/14 11:01:01;;;;;;;13.00;3.10;;;;;;;;;;5061803;28;20445;-63
2022/04/14 11:03:46;;;;;;;7.38;2.67;;;;;;;;;;5072823;28;20025;-61
2022/04/14 11:06:32;;;;;;;17.42;2.30;;;;;;;;;;5071095;28;20020;-62
2022/04/14 11:09:00;;;;;;;7.75;2.03;;;;;;;;;;5069541;28;20574;-61
2022/04/14 11:11:26;;;;;;;7.82;2.45;;;;;;;;;;5070370;28;20029;-63
2022/04/14 11:13:52;;;;;;;7.13;1.95;;;;;;;;;;5067516;28;20074;-62
2022/04/14 11:16:37;;;;;;;7.40;2.50;;;;;;;;;;5071644;28;20048;-62
2022/04/14 11:19:21;;;;;;;4.32;1.90;;;;;;;;;;5064777;28;20067;-64
2022/04/14 11:22:02;;;;;;;6.25;2.25;;;;;;;;;;5055119;28;20021;-61
2022/04/14 11:24:34;;;;;;;9.52;2.88;;;;;;;;;;5066038;28;20367;-62
2022/04/14 11:27:10;;;;;;;7.75;2.30;;;;;;;;;;5073773;28;20063;-61
2022/04/14 11:29:36;;;;;;;6.45;2.30;;;;;;;;;;5073621;28;20060;-62
2022/04/14 11:32:02;;;;;;;8.95;2.80;;;;;;;;;;5073871;28;20150;-61
2022/04/14 11:34:32;;;;;;;3.45;1.55;;;;;;;;;;5073668;28;20024;-62
2022/04/14 11:36:59;;;;;;;5.60;2.53;;;;;;;;;;5073754;28;20024;-61
2022/04/14 11:39:25;;;;;;;6.65;2.10;;;;;;;;;;5073657;28;20021;-62
2022/04/14 11:42:11;;;;;;;5.40;2.42;;;;;;;;;;5073210;28;20027;-63
2022/04/14 11:44:38;;;;;;;3.88;1.80;;;;;;;;;;5106234;28;20075;-63
2022/04/14 11:47:05;;;;;;;5.35;2.08;;;;;;;;;;5113874;28;20047;-64
2022/04/14 11:49:35;;;;;;;4.63;1.92;;;;;;;;;;5113549;28;20043;-62
2022/04/14 11:52:05;;;;;;;15.65;2.58;;;;;;;;;;5113561;28;20028;-62
2022/04/14 11:54:31;;;;;;;8.23;2.30;;;;;;;;;;5113292;28;20076;-63
2022/04/14 11:56:57;;;;;;;7.60;2.20;;;;;;;;;;5113266;28;20475;-64
2022/04/14 11:59:30;;;;;;;11.50;2.40;;;;;;;;;;5113039;28;20031;-64
2022/04/14 12:02:04;;;;;;;8.48;3.30;;;;;;;;;;5113181;28;20027;-62
2022/04/14 12:04:36;;;;;;;7.38;2.50;;;;;;;;;;5113106;28;20022;-63
2022/04/14 12:07:03;;;;;;;6.88;2.30;;;;;;;;;;5094560;28;20020;-63
2022/04/14 12:09:29;;;;;;;6.97;2.30;;;;;;;;;;5094477;28;20036;-62
2022/04/14 12:11:55;;;;;;;7.82;2.75;;;;;;;;;;5105365;28;20039;-65
2022/04/14 12:14:22;;;;;;;12.45;4.18;;;;;;;;;;5112234;28;20479;-64
2022/04/14 12:16:48;;;;;;;12.35;4.63;;;;;;;;;;5112504;28;20079;-63
2022/04/14 12:19:15;;;;;;;11.10;4.50;;;;;;;;;;5110978;28;20059;-65
2022/04/14 12:21:41;;;;;;;12.18;4.30;;;;;;;;;;5091131;28;20490;-64
2022/04/14 12:24:07;;;;;;;8.98;3.80;;;;;;;;;;5107971;28;20475;-62
2022/04/14 12:26:37;;;;;;;6.50;3.40;;;;;;;;;;5091918;28;20021;-64
2022/04/14 12:29:07;;;;;;;17.98;4.55;;;;;;;;;;5092167;28;20035;-63
2022/04/14 12:31:33;;;;;;;8.73;2.85;;;;;;;;;;5092136;28;20125;-62
2022/04/14 12:34:00;;;;;;;6.22;3.60;;;;;;;;;;5091959;28;20024;-62
2022/04/14 12:36:33;;;;;;;10.05;3.38;;;;;;;;;;5092078;28;20416;-63
2022/04/14 12:39:00;;;;;;;8.63;2.92;;;;;;;;;;5091973;28;20031;-63
2022/04/14 12:41:32;;;;;;;9.63;3.50;;;;;;;;;;5092074;28;20547;-62
2022/04/14 12:43:59;;;;;;;10.80;2.92;;;;;;;;;;5091893;28;20617;-63
2022/04/14 12:46:25;;;;;;;7.70;2.65;;;;;;;;;;5092130;28;20028;-63
2022/04/14 12:49:07;;;;;;;12.88;2.80;;;;;;;;;;5091806;28;20036;-64
2022/04/14 12:51:33;;;;;;;;;;;;;;;;;;5092463;28;20020;-62
2022/04/14 12:54:01;;;;;;;5.25;2.20;;;;;;;;;;5091806;28;19914;-63
2022/04/14 12:56:27;;;;;;;6.60;3.03;;;;;;;;;;5091919;28;20016;-62
2022/04/14 12:59:07;;;;;;;6.10;2.78;;;;;;;;;;5091803;28;20039;-62
2022/04/14 13:01:49;;;;;;;8.75;2.70;;;;;;;;;;5091700;28;20487;-63
2022/04/14 13:04:16;;;;;;;10.48;3.70;;;;;;;;;;5091761;28;20109;-62
2022/04/14 13:06:55;;;;;;;6.20;2.38;;;;;;;;;;5091695;28;20129;-63
2022/04/14 13:09:21;;;;;;;10.55;3.13;;;;;;;;;;5091643;28;20641;-62
2022/04/14 13:11:49;;;;;;;9.43;3.53;;;;;;;;;;5091305;28;20051;-63
2022/04/14 13:14:22;;;;;;;5.72;2.00;;;;;;;;;;5091522;28;20563;-62
2022/04/14 13:16:49;;;;;;;10.68;2.38;;;;;;;;;;5091248;28;20020;-62
2022/04/14 13:19:15;;;;;;;5.97;2.30;;;;;;;;;;5091308;28;20046;-63
2022/04/14 13:21:42;;;;;;;10.38;2.97;;;;;;;;;;5091362;28;20506;-62
2022/04/14 13:24:08;;;;;;;7.05;2.45;;;;;;;;;;5091764;28;20589;-63
2022/04/14 13:26:34;;;;;;;5.85;2.53;;;;;;;;;;5091263;28;20077;-62
2022/04/14 13:29:01;;;;;;;4.70;2.20;;;;;;;;;;5091224;28;20028;-63
2022/04/14 13:31:27;;;;;;;4.28;2.20;;;;;;;;;;5091670;28;20039;-62
2022/04/14 13:33:54;;;;;;;4.90;2.28;;;;;;;;;;5095395;28;20103;-62
2022/04/14 13:36:20;;;;;;;8.30;2.92;;;;;;;;;;5095386;28;20008;-63
2022/04/14 13:38:46;;;;;;;8.52;2.92;;;;;;;;;;5095315;28;20020;-63
2022/04/14 13:41:13;;;;;;;7.88;2.95;;;;;;;;;;5095607;28;20126;-64
2022/04/14 13:43:40;;;;;;;4.45;2.22;;;;;;;;;;5095427;28;20052;-63
2022/04/14 13:46:06;;;;;;;7.00;2.30;;;;;;;;;;5095301;28;20024;-63
2022/04/14 13:48:32;;;;;;;8.50;2.55;;;;;;;;;;5077132;28;20110;-63
2022/04/14 13:51:01;;;;;;;6.32;1.90;;;;;;;;;;5095165;28;20120;-63
2022/04/14 13:53:28;;;;;;;4.20;1.90;;;;;;;;;;5095179;28;20060;-63
2022/04/14 13:55:54;;;;;;;6.28;2.42;;;;;;;;;;5094977;28;20020;-64
2022/04/14 13:58:21;;;;;;;9.57;2.90;;;;;;;;;;5095178;28;20471;-63
2022/04/14 14:00:54;;;;;;;5.95;2.55;;;;;;;;;;5095019;28;20471;-63
2022/04/14 14:03:22;;;;;;;5.85;2.60;;;;;;;;;;5095147;28;20031;-64
2022/04/14 14:05:48;;;;;;;9.20;2.60;;;;;;;;;;5094833;28;20048;-64
2022/04/14 14:08:14;;;;;;;8.45;2.58;;;;;;;;;;5094977;28;20356;-64
2022/04/14 14:10:41;;;;;;;10.75;2.70;;;;;;;;;;5095021;28;20020;-64
2022/04/14 14:13:07;;;;;;;4.65;2.33;;;;;;;;;;5094826;28;20089;-64
2022/04/14 14:15:33;;;;;;;4.80;1.70;;;;;;;;;;5076454;28;20020;-64
2022/04/14 14:17:59;;;;;;;4.80;1.80;;;;;;;;;;5094503;28;20479;-64
2022/04/14 14:20:26;;;;;;;7.03;2.15;;;;;;;;;;5094751;28;20072;-64
2022/04/14 14:22:52;;;;;;;13.40;2.70;;;;;;;;;;5094947;28;20027;-63
2022/04/14 14:25:18;;;;;;;7.88;2.55;;;;;;;;;;5094601;28;20020;-62
2022/04/14 14:27:44;;;;;;;7.38;3.10;;;;;;;;;;5094420;28;20032;-62
2022/04/14 14:30:10;;;;;;;6.63;2.60;;;;;;;;;;5094429;28;20031;-64
2022/04/14 14:32:37;;;;;;;7.20;3.08;;;;;;;;;;5076038;28;20043;-64
2022/04/14 14:35:03;;;;;;;5.75;2.83;;;;;;;;;;5094538;28;20028;-64
2022/04/14 14:37:29;;;;;;;8.38;3.08;;;;;;;;;;5094494;28;20016;-62
2022/04/14 14:39:55;;;;;;;10.60;3.35;;;;;;;;;;5094342;28;20031;-62
2022/04/14 14:42:21;;;;;;;9.18;2.80;;;;;;;;;;5093868;28;20020;-61